createdAt,value
2022-12-22T00:00:00.665Z,99.90
2022-12-22T00:02:47.634Z,99.90
2022-12-22T00:05:34.389Z,99.90
2022-12-22T00:08:20.457Z,99.90
2022-12-22T00:11:06.747Z,99.90
2022-12-22T00:13:54.087Z,99.90
2022-12-22T00:16:39.986Z,99.90
2022-12-22T00:19:31.627Z,99.90
2022-12-22T00:22:20.368Z,99.90
2022-12-22T00:25:06.010Z,99.90
2022-12-22T00:27:51.933Z,99.90
2022-12-22T00:30:39.218Z,99.90
2022-12-22T00:33:25.330Z,99.90
2022-12-22T00:36:10.766Z,99.90
2022-12-22T00:38:56.595Z,99.90
2022-12-22T00:41:42.559Z,99.90
2022-12-22T00:44:28.080Z,99.90
2022-12-22T00:47:15.040Z,99.90
2022-12-22T00:50:05.353Z,99.90
2022-12-22T00:52:54.053Z,99.90
2022-12-22T00:55:44.434Z,99.90
2022-12-22T00:58:36.205Z,99.90
2022-12-22T01:01:21.997Z,99.90
2022-12-22T01:04:09.338Z,99.90
2022-12-22T01:06:55.258Z,99.90
2022-12-22T01:09:41.574Z,99.90
2022-12-22T01:12:32.069Z,99.90
2022-12-22T01:15:20.569Z,99.90
2022-12-22T01:18:06.210Z,99.90
2022-12-22T01:20:53.468Z,99.90
2022-12-22T01:23:38.913Z,99.90
2022-12-22T01:26:28.801Z,99.90
2022-12-22T01:29:14.747Z,99.90
2022-12-22T01:32:01.394Z,99.90
2022-12-22T01:34:47.125Z,99.90
2022-12-22T01:37:34.425Z,99.90
2022-12-22T01:40:20.501Z,99.90
2022-12-22T01:43:06.152Z,99.90
2022-12-22T01:45:54.766Z,99.90
2022-12-22T01:48:44.744Z,99.90
2022-12-22T01:51:34.153Z,99.90
2022-12-22T01:54:21.430Z,99.90
2022-12-22T01:57:10.315Z,99.90
2022-12-22T01:59:55.883Z,99.90
2022-12-22T02:02:45.122Z,99.90
2022-12-22T02:05:34.593Z,99.90
2022-12-22T02:08:30.631Z,99.90
2022-12-22T02:11:37.464Z,99.90
2022-12-22T02:14:34.733Z,99.90
2022-12-22T02:17:30.248Z,99.90
2022-12-22T02:20:51.516Z,99.90
2022-12-22T02:24:00.580Z,99.90
2022-12-22T02:26:50.544Z,99.90
2022-12-22T02:29:40.438Z,99.90
2022-12-22T02:32:26.208Z,99.90
2022-12-22T02:35:11.884Z,99.90
2022-12-22T02:38:05.491Z,99.90
2022-12-22T02:40:58.290Z,99.90
2022-12-22T02:43:58.526Z,99.90
2022-12-22T02:46:49.512Z,99.90
2022-12-22T02:49:40.978Z,99.90
2022-12-22T02:52:32.162Z,99.90
2022-12-22T02:55:18.444Z,99.90
2022-12-22T02:58:04.167Z,99.90
2022-12-22T03:00:51.164Z,99.90
2022-12-22T03:03:39.561Z,99.90
2022-12-22T03:06:25.249Z,99.90
2022-12-22T03:09:10.808Z,99.90
2022-12-22T03:11:56.002Z,99.90
2022-12-22T03:14:41.563Z,99.90
2022-12-22T03:17:28.557Z,99.90
2022-12-22T03:20:14.391Z,99.90
2022-12-22T03:23:00.113Z,99.90
2022-12-22T03:25:45.645Z,99.90
2022-12-22T03:28:14.096Z,99.90
2022-12-22T03:30:42.222Z,99.90
2022-12-22T03:33:11.672Z,99.90
2022-12-22T03:35:39.659Z,99.90
2022-12-22T03:38:07.676Z,99.90
2022-12-22T03:40:38.073Z,99.90
2022-12-22T03:43:23.621Z,99.90
2022-12-22T03:46:24.490Z,99.90
2022-12-22T03:49:11.847Z,99.90
2022-12-22T03:51:41.614Z,99.90
2022-12-22T03:54:10.440Z,99.90
2022-12-22T03:56:39.393Z,99.90
2022-12-22T03:59:08.281Z,99.90
2022-12-22T04:01:39.936Z,99.90
2022-12-22T04:04:09.770Z,99.90
2022-12-22T04:06:37.849Z,99.90
2022-12-22T04:09:06.243Z,99.90
2022-12-22T04:11:51.839Z,99.90
2022-12-22T04:14:25.419Z,99.90
2022-12-22T04:16:57.770Z,99.90
2022-12-22T04:19:27.163Z,99.90
2022-12-22T04:21:55.709Z,99.90
2022-12-22T04:24:23.804Z,99.90
2022-12-22T04:26:52.227Z,99.90
2022-12-22T04:29:20.323Z,99.90
2022-12-22T04:31:48.582Z,99.90
2022-12-22T04:34:19.040Z,99.90
2022-12-22T04:36:49.008Z,99.90
2022-12-22T04:39:17.173Z,99.90
2022-12-22T04:41:45.234Z,99.90
2022-12-22T04:44:13.354Z,99.90
2022-12-22T04:46:41.419Z,99.90
2022-12-22T04:49:09.566Z,99.90
2022-12-22T04:51:38.006Z,99.90
2022-12-22T04:54:07.450Z,99.90
2022-12-22T04:56:35.518Z,99.90
2022-12-22T04:59:03.670Z,99.90
2022-12-22T05:01:31.920Z,99.90
2022-12-22T05:04:00.788Z,99.90
2022-12-22T05:06:28.940Z,99.90
2022-12-22T05:08:57.542Z,99.90
2022-12-22T05:11:26.948Z,99.90
2022-12-22T05:13:55.059Z,99.90
2022-12-22T05:16:23.265Z,99.90
2022-12-22T05:18:51.302Z,99.90
2022-12-22T05:21:21.608Z,99.90
2022-12-22T05:23:52.313Z,99.90
2022-12-22T05:26:20.966Z,99.90
2022-12-22T05:28:51.002Z,99.90
2022-12-22T05:31:21.354Z,99.90
2022-12-22T05:33:50.058Z,99.90
2022-12-22T05:36:18.238Z,99.90
2022-12-22T05:38:46.425Z,99.90
2022-12-22T05:41:15.135Z,99.90
2022-12-22T05:43:43.243Z,99.90
2022-12-22T05:46:13.123Z,99.90
2022-12-22T05:48:41.509Z,99.90
2022-12-22T05:51:10.554Z,99.90
2022-12-22T05:53:39.297Z,99.90
2022-12-22T05:56:10.128Z,99.90
2022-12-22T05:58:40.811Z,99.90
2022-12-22T06:01:09.009Z,99.90
2022-12-22T06:03:38.473Z,99.90
2022-12-22T06:06:09.129Z,99.90
2022-12-22T06:08:37.184Z,99.90
2022-12-22T06:11:05.410Z,99.90
2022-12-22T06:13:33.721Z,99.90
2022-12-22T06:16:02.297Z,99.90
2022-12-22T06:18:30.739Z,99.90
2022-12-22T06:21:00.172Z,99.90
2022-12-22T06:23:28.263Z,99.90
2022-12-22T06:25:57.436Z,99.90
2022-12-22T06:28:26.103Z,99.90
2022-12-22T06:30:54.637Z,99.90
2022-12-22T06:33:22.804Z,99.90
2022-12-22T06:35:57.901Z,99.90
2022-12-22T06:38:28.969Z,99.90
2022-12-22T06:40:57.048Z,99.90
2022-12-22T06:43:24.498Z,99.90
2022-12-22T06:45:52.670Z,99.90
2022-12-22T06:48:21.855Z,99.90
2022-12-22T06:50:49.918Z,99.90
2022-12-22T06:53:18.134Z,99.90
2022-12-22T06:55:48.628Z,99.90
2022-12-22T06:58:16.834Z,99.90
2022-12-22T07:00:48.442Z,99.90
2022-12-22T07:03:17.008Z,99.90
2022-12-22T07:05:45.258Z,99.90
2022-12-22T07:08:13.251Z,99.90
2022-12-22T07:10:59.552Z,99.90
2022-12-22T07:13:31.847Z,99.90
2022-12-22T07:16:01.655Z,99.90
2022-12-22T07:18:32.276Z,99.90
2022-12-22T07:21:02.225Z,99.90
2022-12-22T07:23:31.643Z,99.90
2022-12-22T07:26:00.290Z,99.90
2022-12-22T07:28:29.955Z,99.90
2022-12-22T07:30:58.224Z,99.90
2022-12-22T07:33:26.397Z,99.90
2022-12-22T07:36:09.149Z,99.90
2022-12-22T07:38:39.651Z,99.90
2022-12-22T07:41:29.989Z,99.90
2022-12-22T07:44:00.192Z,99.90
2022-12-22T07:46:30.989Z,99.90
2022-12-22T07:49:16.845Z,99.90
2022-12-22T07:51:45.538Z,99.90
2022-12-22T07:54:15.464Z,99.90
2022-12-22T07:56:43.851Z,99.90
2022-12-22T07:59:14.022Z,99.90
2022-12-22T08:01:43.130Z,99.90
2022-12-22T08:04:11.665Z,99.90
2022-12-22T08:06:40.160Z,99.90
2022-12-22T08:09:09.467Z,99.90
2022-12-22T08:11:37.615Z,99.90
2022-12-22T08:14:05.923Z,99.90
2022-12-22T08:16:35.448Z,99.90
2022-12-22T08:19:04.073Z,99.90
2022-12-22T08:21:32.187Z,98.50
2022-12-22T08:24:00.433Z,98.00
2022-12-22T08:26:33.183Z,99.40
2022-12-22T08:29:07.537Z,97.80
2022-12-22T08:31:37.123Z,97.40
2022-12-22T08:34:07.732Z,96.60
2022-12-22T08:36:40.163Z,97.10
2022-12-22T08:39:08.886Z,96.30
2022-12-22T08:41:52.897Z,95.90
2022-12-22T08:44:23.768Z,95.20
2022-12-22T08:46:55.117Z,95.00
2022-12-22T08:49:23.843Z,94.70
2022-12-22T08:51:52.248Z,94.70
2022-12-22T08:54:22.266Z,93.70
2022-12-22T08:56:51.037Z,93.10
2022-12-22T08:59:19.708Z,91.80
2022-12-22T09:01:50.723Z,90.80
2022-12-22T09:04:24.294Z,90.10
2022-12-22T09:06:54.014Z,88.10
2022-12-22T09:09:22.743Z,87.00
2022-12-22T09:11:51.501Z,87.00
2022-12-22T09:14:19.945Z,85.90
2022-12-22T09:16:50.495Z,84.90
2022-12-22T09:19:20.327Z,83.00
2022-12-22T09:21:48.842Z,83.50
2022-12-22T09:24:17.064Z,83.00
2022-12-22T09:26:45.344Z,82.30
2022-12-22T09:29:18.124Z,81.70
2022-12-22T09:31:46.369Z,81.50
2022-12-22T09:35:15.120Z,81.70
2022-12-22T09:37:48.079Z,80.90
2022-12-22T09:40:16.662Z,80.10
2022-12-22T09:42:45.330Z,79.40
2022-12-22T09:45:19.956Z,79.20
2022-12-22T09:47:53.594Z,79.50
2022-12-22T09:50:24.590Z,80.00
2022-12-22T09:52:56.586Z,79.90
2022-12-22T09:55:39.665Z,80.50
2022-12-22T09:58:23.993Z,80.00
2022-12-22T10:01:01.660Z,79.40
2022-12-22T10:03:38.121Z,79.10
2022-12-22T10:06:12.758Z,79.00
2022-12-22T10:08:42.906Z,78.80
2022-12-22T10:11:15.525Z,77.00
2022-12-22T10:13:44.420Z,76.60
2022-12-22T10:16:20.377Z,77.00
2022-12-22T10:19:02.102Z,76.80
2022-12-22T10:21:30.733Z,77.00
2022-12-22T10:24:00.723Z,77.30
2022-12-22T10:26:32.868Z,77.20
2022-12-22T10:29:04.451Z,77.00
2022-12-22T10:31:34.139Z,76.40
2022-12-22T10:34:14.006Z,77.70
2022-12-22T10:36:47.389Z,77.40
2022-12-22T10:39:22.393Z,77.70
2022-12-22T10:41:53.423Z,75.50
2022-12-22T10:44:24.065Z,75.00
2022-12-22T10:46:57.247Z,74.80
2022-12-22T10:49:29.585Z,74.70
2022-12-22T10:52:10.718Z,74.70
2022-12-22T10:54:42.499Z,74.20
2022-12-22T10:57:29.208Z,74.90
2022-12-22T10:59:59.162Z,75.10
2022-12-22T11:02:31.587Z,75.00
2022-12-22T11:05:05.611Z,74.80
2022-12-22T11:07:36.724Z,74.80
2022-12-22T11:10:18.679Z,75.20
2022-12-22T11:13:19.888Z,75.20
2022-12-22T11:15:52.773Z,75.30
2022-12-22T11:18:43.661Z,75.00
2022-12-22T11:21:24.372Z,74.50
2022-12-22T11:24:08.775Z,74.90
2022-12-22T11:26:50.546Z,75.90
2022-12-22T11:29:37.876Z,77.00
2022-12-22T11:32:15.809Z,79.20
2022-12-22T11:34:55.581Z,79.70
2022-12-22T11:37:32.619Z,80.70
2022-12-22T11:40:13.190Z,80.10
2022-12-22T11:42:55.621Z,80.20
2022-12-22T11:45:43.585Z,80.70
2022-12-22T11:48:37.407Z,80.50
2022-12-22T11:51:14.325Z,81.20
2022-12-22T11:53:57.098Z,82.40
2022-12-22T11:56:28.449Z,81.70
2022-12-22T11:59:17.833Z,81.50
2022-12-22T12:02:00.533Z,81.30
2022-12-22T12:04:50.094Z,81.80
2022-12-22T12:07:29.159Z,82.60
2022-12-22T12:10:08.194Z,82.80
2022-12-22T12:12:47.064Z,82.70
2022-12-22T12:15:25.502Z,83.00
2022-12-22T12:18:23.747Z,83.20
2022-12-22T12:21:21.341Z,83.70
2022-12-22T12:24:14.538Z,84.30
2022-12-22T12:26:53.539Z,85.10
2022-12-22T12:29:27.073Z,85.60
2022-12-22T12:32:02.113Z,86.00
2022-12-22T12:34:34.927Z,87.70
2022-12-22T12:37:09.766Z,87.70
2022-12-22T12:39:42.311Z,88.50
2022-12-22T12:42:22.805Z,88.90
2022-12-22T12:44:52.339Z,89.30
2022-12-22T12:47:27.514Z,90.00
2022-12-22T12:50:00.645Z,91.10
2022-12-22T12:53:14.049Z,92.40
2022-12-22T12:56:06.821Z,92.30
2022-12-22T12:58:53.372Z,93.70
2022-12-22T13:01:55.217Z,96.80
2022-12-22T13:05:09.274Z,97.50
2022-12-22T13:08:14.523Z,99.10
2022-12-22T13:10:46.319Z,99.90
2022-12-22T13:13:50.676Z,99.90
2022-12-22T13:16:31.310Z,99.90
2022-12-22T13:19:00.791Z,99.90
2022-12-22T13:21:52.989Z,99.90
2022-12-22T13:24:34.331Z,99.90
2022-12-22T13:27:06.812Z,99.90
2022-12-22T13:29:43.871Z,99.90
2022-12-22T13:32:24.995Z,99.90
2022-12-22T13:37:57.462Z,99.90
2022-12-22T13:40:30.734Z,99.90
2022-12-22T13:43:03.599Z,99.90
2022-12-22T13:45:37.481Z,99.90
2022-12-22T13:48:13.651Z,99.90
2022-12-22T13:50:45.702Z,99.90
2022-12-22T13:53:49.981Z,99.90
2022-12-22T13:56:15.302Z,99.90
2022-12-22T13:58:46.599Z,99.60
2022-12-22T14:01:18.511Z,99.70
2022-12-22T14:04:06.914Z,99.00
2022-12-22T14:06:40.315Z,99.10
2022-12-22T14:09:15.023Z,97.60
2022-12-22T14:11:51.473Z,97.50
2022-12-22T14:14:24.015Z,97.70
2022-12-22T14:16:57.559Z,98.70
2022-12-22T14:19:27.245Z,99.90
2022-12-22T14:22:04.770Z,99.90
2022-12-22T14:24:38.787Z,99.90
2022-12-22T14:27:19.644Z,99.90
2022-12-22T14:29:48.213Z,99.90
2022-12-22T14:32:38.757Z,99.90
2022-12-22T14:35:25.842Z,99.90
2022-12-22T14:37:55.847Z,99.90
2022-12-22T14:40:35.380Z,99.90
2022-12-22T14:43:08.280Z,99.90
2022-12-22T14:45:36.574Z,99.90
2022-12-22T14:48:10.449Z,99.60
2022-12-22T14:50:40.057Z,99.50
2022-12-22T14:53:13.015Z,99.50
2022-12-22T14:55:43.568Z,99.90
2022-12-22T14:58:16.504Z,99.90
2022-12-22T15:00:45.935Z,99.90
2022-12-22T15:03:31.384Z,99.90
2022-12-22T15:06:24.277Z,99.90
2022-12-22T15:08:53.724Z,99.90
2022-12-22T15:11:25.083Z,99.90
2022-12-22T15:13:54.730Z,99.90
2022-12-22T15:16:24.434Z,99.70
2022-12-22T15:18:54.292Z,99.10
2022-12-22T15:21:25.025Z,98.70
2022-12-22T15:23:53.280Z,98.30
2022-12-22T15:26:21.444Z,98.60
2022-12-22T15:28:50.002Z,99.70
2022-12-22T15:31:19.878Z,99.90
2022-12-22T15:33:48.070Z,99.90
2022-12-22T15:36:16.656Z,99.90
2022-12-22T15:38:45.100Z,99.90
2022-12-22T15:41:15.447Z,99.90
2022-12-22T15:43:59.635Z,99.90
2022-12-22T15:46:29.466Z,99.90
2022-12-22T15:48:57.977Z,99.90
2022-12-22T15:51:30.880Z,99.90
2022-12-22T15:54:02.145Z,99.90
2022-12-22T15:56:33.406Z,99.90
2022-12-22T15:59:03.177Z,99.90
2022-12-22T16:01:32.954Z,99.90
2022-12-22T16:04:01.546Z,99.90
2022-12-22T16:06:32.282Z,99.90
2022-12-22T16:09:01.043Z,99.90
2022-12-22T16:11:29.769Z,99.90
2022-12-22T16:13:58.019Z,99.90
2022-12-22T16:16:26.179Z,99.90
2022-12-22T16:18:55.660Z,99.90
2022-12-22T16:21:30.453Z,99.90
2022-12-22T16:24:00.358Z,99.90
2022-12-22T16:26:28.682Z,99.90
2022-12-22T16:28:58.241Z,99.70
2022-12-22T16:31:27.778Z,99.10
2022-12-22T16:33:57.401Z,98.60
2022-12-22T16:36:25.548Z,98.90
2022-12-22T16:38:53.852Z,98.80
2022-12-22T16:41:26.180Z,97.70
2022-12-22T16:46:42.058Z,98.00
2022-12-22T16:49:21.480Z,97.50
2022-12-22T16:51:54.320Z,97.00
2022-12-22T16:54:22.662Z,97.20
2022-12-22T16:56:51.893Z,96.70
2022-12-22T16:59:20.410Z,96.70
2022-12-22T17:01:51.631Z,96.60
2022-12-22T17:04:25.132Z,96.50
2022-12-22T17:06:54.978Z,96.30
2022-12-22T17:09:26.762Z,96.10
2022-12-22T17:11:56.230Z,96.20
2022-12-22T17:14:29.601Z,96.30
2022-12-22T17:16:58.600Z,96.20
2022-12-22T17:19:28.277Z,95.90
2022-12-22T17:21:58.960Z,96.00
2022-12-22T17:24:29.466Z,96.30
2022-12-22T17:27:01.059Z,96.00
2022-12-22T17:29:30.085Z,96.30
2022-12-22T17:31:58.240Z,96.30
2022-12-22T17:34:27.919Z,96.20
2022-12-22T17:36:56.881Z,95.60
2022-12-22T17:39:25.590Z,95.30
2022-12-22T17:41:57.249Z,96.20
2022-12-22T17:44:27.854Z,95.80
2022-12-22T17:46:56.221Z,96.00
2022-12-22T17:49:27.851Z,96.70
2022-12-22T17:51:56.201Z,98.00
2022-12-22T17:54:27.470Z,99.20
2022-12-22T17:56:59.975Z,99.90
2022-12-22T17:59:28.206Z,99.90
2022-12-22T18:01:56.481Z,99.80
2022-12-22T18:04:24.749Z,98.80
2022-12-22T18:06:54.266Z,98.80
2022-12-22T18:09:26.223Z,98.70
2022-12-22T18:11:54.977Z,98.40
2022-12-22T18:14:23.800Z,98.70
2022-12-22T18:16:52.309Z,98.60
2022-12-22T18:19:20.556Z,98.10
2022-12-22T18:21:49.098Z,97.90
2022-12-22T18:24:20.896Z,98.20
2022-12-22T18:26:49.092Z,98.00
2022-12-22T18:29:17.443Z,98.10
2022-12-22T18:31:45.865Z,98.00
2022-12-22T18:34:14.345Z,97.90
2022-12-22T18:36:45.402Z,97.90
2022-12-22T18:39:20.220Z,98.00
2022-12-22T18:41:48.536Z,98.20
2022-12-22T18:44:17.646Z,98.90
2022-12-22T18:46:46.881Z,99.90
2022-12-22T18:49:15.147Z,99.90
2022-12-22T18:51:47.062Z,99.90
2022-12-22T18:54:28.878Z,99.90
2022-12-22T18:56:57.453Z,99.90
2022-12-22T18:59:27.984Z,99.90
2022-12-22T19:02:00.752Z,99.90
2022-12-22T19:04:29.272Z,99.90
2022-12-22T19:06:57.659Z,99.90
2022-12-22T19:09:27.147Z,99.90
2022-12-22T19:11:55.954Z,99.90
2022-12-22T19:14:25.400Z,99.90
2022-12-22T19:16:56.005Z,99.90
2022-12-22T19:19:26.399Z,99.90
2022-12-22T19:21:54.874Z,99.90
2022-12-22T19:24:23.063Z,99.90
2022-12-22T19:26:52.639Z,99.90
2022-12-22T19:29:20.754Z,99.90
2022-12-22T19:31:49.172Z,99.90
2022-12-22T19:34:20.871Z,99.90
2022-12-22T19:36:49.297Z,99.90
2022-12-22T19:39:17.808Z,99.90
2022-12-22T19:41:47.777Z,99.90
2022-12-22T19:44:21.889Z,99.90
2022-12-22T19:46:51.253Z,99.90
2022-12-22T19:49:21.454Z,99.90
2022-12-22T19:51:49.516Z,99.90
2022-12-22T19:54:19.362Z,99.90
2022-12-22T19:56:49.592Z,99.90
2022-12-22T19:59:29.554Z,99.90
2022-12-22T20:01:59.877Z,99.90
2022-12-22T20:04:28.598Z,99.90
2022-12-22T20:06:56.646Z,99.90
2022-12-22T20:09:24.737Z,99.90
2022-12-22T20:11:55.833Z,99.90
2022-12-22T20:14:25.267Z,99.90
2022-12-22T20:16:53.534Z,99.90
2022-12-22T20:19:21.604Z,99.90
2022-12-22T20:21:52.302Z,99.90
2022-12-22T20:24:23.638Z,99.90
2022-12-22T20:26:55.023Z,99.90
2022-12-22T20:29:25.954Z,99.90
2022-12-22T20:31:54.224Z,99.90
2022-12-22T20:34:22.787Z,99.90
2022-12-22T20:36:50.990Z,99.90
2022-12-22T20:39:20.564Z,99.90
2022-12-22T20:41:53.353Z,99.90
2022-12-22T20:44:23.423Z,99.90
2022-12-22T20:46:53.814Z,99.90
2022-12-22T20:49:24.381Z,99.90
2022-12-22T20:51:52.601Z,99.90
2022-12-22T20:54:23.258Z,99.90
2022-12-22T20:56:51.600Z,99.20
2022-12-22T20:59:22.461Z,99.10
2022-12-22T21:01:53.738Z,98.40
2022-12-22T21:04:22.326Z,98.70
2022-12-22T21:06:52.425Z,98.20
2022-12-22T21:09:21.120Z,98.30
2022-12-22T21:11:49.775Z,97.90
2022-12-22T21:14:18.404Z,98.60
2022-12-22T21:16:46.795Z,98.20
2022-12-22T21:19:19.713Z,98.00
2022-12-22T21:21:47.961Z,98.50
2022-12-22T21:24:16.473Z,99.30
2022-12-22T21:26:48.233Z,98.50
2022-12-22T21:29:19.283Z,98.60
2022-12-22T21:31:47.582Z,99.40
2022-12-22T21:34:17.123Z,98.70
2022-12-22T21:36:49.440Z,99.00
2022-12-22T21:39:24.550Z,99.20
2022-12-22T21:42:01.574Z,99.10
2022-12-22T21:44:30.705Z,99.00
2022-12-22T21:47:00.023Z,99.90
2022-12-22T21:49:31.406Z,99.90
2022-12-22T21:52:00.477Z,99.90
2022-12-22T21:54:28.496Z,99.90
2022-12-22T21:56:57.247Z,99.90
2022-12-22T21:59:25.371Z,99.90
2022-12-22T22:01:53.776Z,99.90
2022-12-22T22:04:23.321Z,99.90
2022-12-22T22:06:52.801Z,99.90
2022-12-22T22:09:20.927Z,99.90
2022-12-22T22:12:06.801Z,99.90
2022-12-22T22:14:34.991Z,99.90
2022-12-22T22:17:02.986Z,99.90
2022-12-22T22:19:31.087Z,99.90
2022-12-22T22:22:00.556Z,99.90
2022-12-22T22:24:28.894Z,99.90
2022-12-22T22:27:00.445Z,99.90
2022-12-22T22:29:28.489Z,99.90
2022-12-22T22:31:56.731Z,99.90
2022-12-22T22:34:26.904Z,99.90
2022-12-22T22:36:55.046Z,99.90
2022-12-22T22:39:24.805Z,99.90
2022-12-22T22:41:52.874Z,99.90
2022-12-22T22:44:21.074Z,99.90
2022-12-22T22:46:49.131Z,99.90
2022-12-22T22:49:19.361Z,99.90
2022-12-22T22:51:50.803Z,99.90
2022-12-22T22:54:18.811Z,99.90
2022-12-22T22:56:48.219Z,99.90
2022-12-22T22:59:16.666Z,99.90
2022-12-22T23:01:47.238Z,99.90
2022-12-22T23:04:15.440Z,99.90
2022-12-22T23:06:45.785Z,99.90
2022-12-22T23:09:13.915Z,99.90
2022-12-22T23:11:42.004Z,99.90
2022-12-22T23:14:12.682Z,99.90
2022-12-22T23:16:43.388Z,99.90
2022-12-22T23:19:11.884Z,99.90
2022-12-22T23:21:40.005Z,99.90
2022-12-22T23:24:10.405Z,99.90
2022-12-22T23:26:39.663Z,99.90
2022-12-22T23:29:07.992Z,99.90
2022-12-22T23:31:37.804Z,99.90
2022-12-22T23:34:06.405Z,99.90
2022-12-22T23:36:34.453Z,99.90
2022-12-22T23:39:02.497Z,99.90
2022-12-22T23:41:30.677Z,99.90
2022-12-22T23:43:58.913Z,99.90
2022-12-22T23:46:27.130Z,99.90
2022-12-22T23:48:58.256Z,99.90
2022-12-22T23:51:29.169Z,99.90
2022-12-22T23:53:59.152Z,99.90
2022-12-22T23:56:27.350Z,99.90
2022-12-22T23:58:55.664Z,99.90
